메인 페이지
METAR-TAF:

METAR-TAF

공항 :

인버네스, 스코틀랜드

위도: 57-32N, 경도: 004-03W, 고도: 9m

현재 날씨관측

예보는 35분 전, 03:20시(UTC)에 발표되었습니다.
남서2kt
온도 14°C
습도 88%
기압 1007 hPa
시정 10km 이상
고도 3500ft 상공 구름 조금

METAR: EGPE 210320Z 23002KT 9999 FEW035 14/12 Q1007

시각: 04:55 (03:55 UTC)

예보

예보는 2 시간 2분 전, 01:53시(UTC)에 발표되었습니다.
예보 대상 시간: 21일 03시부터 21일 12시까지 (UTC)
남서7kt
시정 10km 이상
고도 3500ft 상공 구름 보통
확률 30% :
일시적
21일 03시부터 21일 12시까지 (UTC)
시정: 8000m
약한비,

TAF: EGPE 210153Z 2103/2112 22007KT 9999 SCT035 PROB30 TEMPO 2103/2112 8000 -RA

4,000개 이상의 공항 관측 자료 및 예보 (METAR 및 TAF 보고).

지도상에서 검색 가능한 기상관측소가 노란 점과 빨간 점으로 표시되어 있습니다.

기상관측소 명을 보려면 표시 위로 마우스를 이동하세요.

날씨 관측과 예보를 보려면 클릭하세요.

지도 변경 : 확대하려면 엑스 표시가 있는 녹색 버튼, 축소하려면 빼기 표시가 있는 녹색 버튼, 다음 페이지의 지도를 보려면 녹색 화살표를 클릭하세요.


METAR-TAF: